sensor_id;sensor_type;location;lat;lon;timestamp;pressure;altitude;pressure_sealevel;temperature;humidity
12722;BME280;6425;50.316;8.114;2022-11-20T08:40:41;98554.06;;;-0.58;100.00
12722;BME280;6425;50.316;8.114;2022-11-20T08:45:45;98553.25;;;-0.12;100.00
12722;BME280;6425;50.316;8.114;2022-11-20T08:50:49;98560.09;;;-0.03;100.00
12722;BME280;6425;50.316;8.114;2022-11-20T08:55:51;98548.28;;;0.05;100.00
12722;BME280;6425;50.316;8.114;2022-11-20T09:00:52;98559.44;;;0.21;100.00
12722;BME280;6425;50.316;8.114;2022-11-20T09:05:56;98553.19;;;1.37;99.45
12722;BME280;6425;50.316;8.114;2022-11-20T09:10:58;98555.22;;;1.10;95.91
12722;BME280;6425;50.316;8.114;2022-11-20T09:16:00;98565.34;;;0.63;93.56
12722;BME280;6425;50.316;8.114;2022-11-20T09:26:23;98545.94;;;2.56;88.45
12722;BME280;6425;50.316;8.114;2022-11-20T09:31:25;98546.38;;;3.92;84.91
12722;BME280;6425;50.316;8.114;2022-11-20T09:36:28;98546.03;;;4.59;82.03
12722;BME280;6425;50.316;8.114;2022-11-20T09:42:00;98555.81;;;1.75;84.26
12722;BME280;6425;50.316;8.114;2022-11-20T09:47:08;98546.41;;;2.10;87.54
12722;BME280;6425;50.316;8.114;2022-11-20T09:52:16;98561.50;;;1.36;89.15
12722;BME280;6425;50.316;8.114;2022-11-20T09:57:25;98573.97;;;0.92;90.81
12722;BME280;6425;50.316;8.114;2022-11-20T10:02:42;98557.88;;;1.17;92.02
12722;BME280;6425;50.316;8.114;2022-11-20T10:07:52;98562.84;;;2.51;90.77
12722;BME280;6425;50.316;8.114;2022-11-20T10:13:09;98553.78;;;1.71;89.33
12722;BME280;6425;50.316;8.114;2022-11-20T10:18:32;98546.31;;;3.57;87.62
12722;BME280;6425;50.316;8.114;2022-11-20T10:23:52;98537.91;;;4.00;83.28
12722;BME280;6425;50.316;8.114;2022-11-20T10:29:10;98514.50;;;4.81;79.80
12722;BME280;6425;50.316;8.114;2022-11-20T10:34:19;98508.06;;;5.11;78.05
12722;BME280;6425;50.316;8.114;2022-11-20T10:39:29;98514.94;;;4.26;76.79
12722;BME280;6425;50.316;8.114;2022-11-20T10:44:36;98516.31;;;2.98;79.57
12722;BME280;6425;50.316;8.114;2022-11-20T10:49:37;98520.59;;;4.24;79.38
12722;BME280;6425;50.316;8.114;2022-11-20T10:54:49;98511.75;;;3.28;80.16
12722;BME280;6425;50.316;8.114;2022-11-20T11:00:06;98503.72;;;4.58;78.17
12722;BME280;6425;50.316;8.114;2022-11-20T11:05:25;98498.66;;;5.92;74.26
12722;BME280;6425;50.316;8.114;2022-11-20T11:10:34;98497.84;;;6.69;72.20
12722;BME280;6425;50.316;8.114;2022-11-20T11:15:39;98493.16;;;6.65;69.71
12722;BME280;6425;50.316;8.114;2022-11-20T11:20:52;98474.50;;;7.22;67.96
12722;BME280;6425;50.316;8.114;2022-11-20T11:26:18;98463.44;;;7.56;68.27
12722;BME280;6425;50.316;8.114;2022-11-20T11:31:24;98468.25;;;5.16;72.69
12722;BME280;6425;50.316;8.114;2022-11-20T11:36:34;98464.66;;;6.12;71.61
12722;BME280;6425;50.316;8.114;2022-11-20T11:42:25;98461.34;;;6.65;71.34
12722;BME280;6425;50.316;8.114;2022-11-20T11:47:44;98445.19;;;6.59;70.50
12722;BME280;6425;50.316;8.114;2022-11-20T11:53:19;98429.22;;;6.67;70.56
12722;BME280;6425;50.316;8.114;2022-11-20T11:58:45;98434.16;;;6.70;70.52
12722;BME280;6425;50.316;8.114;2022-11-20T12:04:34;98432.28;;;7.47;69.25
12722;BME280;6425;50.316;8.114;2022-11-20T12:09:42;98419.94;;;8.14;67.21
12722;BME280;6425;50.316;8.114;2022-11-20T12:14:49;98416.81;;;7.90;66.24
12722;BME280;6425;50.316;8.114;2022-11-20T12:19:57;98388.75;;;8.52;64.62
12722;BME280;6425;50.316;8.114;2022-11-20T12:25:09;98392.91;;;8.75;64.12
12722;BME280;6425;50.316;8.114;2022-11-20T12:30:21;98385.56;;;8.13;65.30
12722;BME280;6425;50.316;8.114;2022-11-20T12:35:43;98387.63;;;7.90;66.39
12722;BME280;6425;50.316;8.114;2022-11-20T12:40:50;98382.03;;;6.57;70.23
12722;BME280;6425;50.316;8.114;2022-11-20T12:46:26;98391.41;;;5.83;72.70
12722;BME280;6425;50.316;8.114;2022-11-20T12:51:52;98379.25;;;5.18;74.55
12722;BME280;6425;50.316;8.114;2022-11-20T12:57:21;98370.19;;;5.63;77.06
12722;BME280;6425;50.316;8.114;2022-11-20T13:02:37;98378.41;;;5.01;78.47
12722;BME280;6425;50.316;8.114;2022-11-20T13:07:44;98358.47;;;5.79;76.74
12722;BME280;6425;50.316;8.114;2022-11-20T13:13:02;98350.88;;;4.81;78.13
12722;BME280;6425;50.316;8.114;2022-11-20T13:18:08;98360.81;;;5.20;78.68
12722;BME280;6425;50.316;8.114;2022-11-20T13:23:45;98356.47;;;5.92;77.76
12722;BME280;6425;50.316;8.114;2022-11-20T13:29:04;98338.00;;;5.94;77.37
12722;BME280;6425;50.316;8.114;2022-11-20T13:34:06;98335.72;;;6.51;76.98
12722;BME280;6425;50.316;8.114;2022-11-20T13:39:09;98334.53;;;5.60;78.05
12722;BME280;6425;50.316;8.114;2022-11-20T13:44:13;98338.69;;;5.84;78.89
12722;BME280;6425;50.316;8.114;2022-11-20T13:49:18;98330.56;;;5.67;77.54
12722;BME280;6425;50.316;8.114;2022-11-20T13:54:42;98320.81;;;5.49;77.56
12722;BME280;6425;50.316;8.114;2022-11-20T13:59:56;98308.19;;;5.60;78.11
12722;BME280;6425;50.316;8.114;2022-11-20T14:04:58;98289.88;;;5.94;77.99
12722;BME280;6425;50.316;8.114;2022-11-20T14:10:01;98285.06;;;5.02;79.93
12722;BME280;6425;50.316;8.114;2022-11-20T14:15:02;98283.22;;;5.24;81.27
12722;BME280;6425;50.316;8.114;2022-11-20T14:20:05;98279.31;;;4.53;81.98
12722;BME280;6425;50.316;8.114;2022-11-20T14:25:20;98268.13;;;5.72;81.78
12722;BME280;6425;50.316;8.114;2022-11-20T14:30:29;98258.25;;;6.32;79.36
